createdAt,value
2023-04-06T00:02:23.972Z,31.13
2023-04-06T00:04:50.826Z,28.87
2023-04-06T00:07:18.677Z,32.70
2023-04-06T00:09:45.896Z,33.27
2023-04-06T00:12:12.777Z,31.77
2023-04-06T00:14:39.648Z,32.47
2023-04-06T00:17:06.581Z,31.00
2023-04-06T00:19:33.476Z,32.37
2023-04-06T00:22:00.521Z,31.53
2023-04-06T00:24:27.437Z,31.27
2023-04-06T00:26:54.271Z,32.97
2023-04-06T00:29:21.148Z,33.40
2023-04-06T00:31:48.032Z,31.80
2023-04-06T00:34:16.949Z,32.03
2023-04-06T00:36:43.857Z,33.77
2023-04-06T00:39:11.403Z,29.50
2023-04-06T00:41:38.288Z,30.97
2023-04-06T00:44:05.136Z,34.13
2023-04-06T00:46:32.000Z,32.97
2023-04-06T00:48:58.972Z,31.30
2023-04-06T00:51:26.502Z,32.37
2023-04-06T00:53:53.336Z,32.07
2023-04-06T00:56:20.232Z,33.60
2023-04-06T00:58:47.074Z,32.60
2023-04-06T01:01:13.946Z,35.50
2023-04-06T01:03:40.869Z,34.60
2023-04-06T01:06:07.837Z,34.80
2023-04-06T01:08:34.704Z,34.17
2023-04-06T01:11:02.002Z,36.80
2023-04-06T01:13:29.048Z,37.53
2023-04-06T01:15:56.122Z,37.23
2023-04-06T01:18:29.817Z,36.27
2023-04-06T01:20:56.883Z,35.03
2023-04-06T01:23:23.717Z,34.97
2023-04-06T01:25:50.683Z,33.93
2023-04-06T01:28:17.605Z,34.63
2023-04-06T01:30:44.489Z,36.17
2023-04-06T01:33:11.490Z,35.37
2023-04-06T01:35:38.439Z,34.07
2023-04-06T01:38:05.308Z,33.30
2023-04-06T01:40:32.179Z,30.47
2023-04-06T01:42:59.056Z,32.63
2023-04-06T01:45:27.136Z,31.40
2023-04-06T01:47:54.017Z,31.73
2023-04-06T01:50:20.926Z,33.70
2023-04-06T01:52:47.826Z,31.40
2023-04-06T01:55:14.710Z,30.40
2023-04-06T01:57:41.628Z,32.73
2023-04-06T02:00:09.003Z,30.60
2023-04-06T02:02:35.948Z,29.97
2023-04-06T02:05:02.962Z,28.10
2023-04-06T02:07:31.053Z,25.13
2023-04-06T02:09:57.932Z,25.93
2023-04-06T02:12:25.059Z,23.77
2023-04-06T02:14:52.241Z,23.90
2023-04-06T02:17:19.196Z,24.60
2023-04-06T02:19:46.428Z,23.63
2023-04-06T02:22:13.301Z,24.93
2023-04-06T02:24:40.225Z,23.43
2023-04-06T02:27:07.423Z,24.37
2023-04-06T02:29:34.241Z,22.73
2023-04-06T02:32:01.279Z,23.73
2023-04-06T02:34:28.228Z,24.17
2023-04-06T02:36:55.323Z,25.77
2023-04-06T02:39:22.275Z,23.43
2023-04-06T02:41:49.097Z,24.77
2023-04-06T02:44:16.183Z,24.63
2023-04-06T02:46:43.112Z,23.83
2023-04-06T02:49:10.127Z,24.00
2023-04-06T02:51:37.134Z,25.50
2023-04-06T02:54:04.082Z,25.00
2023-04-06T02:56:30.978Z,26.47
2023-04-06T02:58:57.866Z,26.00
2023-04-06T03:01:24.804Z,25.77
2023-04-06T03:03:51.990Z,25.87
2023-04-06T03:06:18.980Z,26.13
2023-04-06T03:08:46.275Z,26.77
2023-04-06T03:11:13.106Z,26.37
2023-04-06T03:13:41.341Z,26.83
2023-04-06T03:16:08.364Z,26.50
2023-04-06T03:18:35.454Z,27.33
2023-04-06T03:21:02.422Z,26.70
2023-04-06T03:23:30.458Z,26.70
2023-04-06T03:25:57.313Z,27.70
2023-04-06T03:28:24.159Z,27.80
2023-04-06T03:30:51.238Z,24.83
2023-04-06T03:33:18.109Z,28.27
2023-04-06T03:35:45.224Z,28.37
2023-04-06T03:38:12.186Z,28.20
2023-04-06T03:40:39.063Z,28.33
2023-04-06T03:43:06.221Z,27.13
2023-04-06T03:45:33.099Z,28.63
2023-04-06T03:47:59.937Z,28.53
2023-04-06T03:50:27.093Z,27.27
2023-04-06T03:52:53.991Z,27.90
2023-04-06T03:55:20.941Z,29.13
2023-04-06T03:57:47.807Z,30.63
2023-04-06T04:00:15.018Z,28.83
2023-04-06T04:02:41.976Z,28.80
2023-04-06T04:05:09.343Z,29.07
2023-04-06T04:07:36.264Z,29.17
2023-04-06T04:10:03.175Z,30.03
2023-04-06T04:12:29.989Z,28.83
2023-04-06T04:14:56.870Z,30.60
2023-04-06T04:17:23.739Z,29.17
2023-04-06T04:19:50.665Z,29.30
2023-04-06T04:22:17.541Z,28.57
2023-04-06T04:24:44.401Z,28.53
2023-04-06T04:27:11.417Z,29.40
2023-04-06T04:29:38.314Z,26.80
2023-04-06T04:32:05.495Z,25.40
2023-04-06T04:34:32.664Z,26.27
2023-04-06T04:36:59.603Z,24.90
2023-04-06T04:39:26.544Z,25.50
2023-04-06T04:41:53.542Z,22.07
2023-04-06T04:44:20.965Z,20.60
2023-04-06T04:46:47.805Z,20.60
2023-04-06T04:49:14.680Z,20.53
2023-04-06T04:51:41.546Z,18.63
2023-04-06T04:54:08.449Z,16.40
2023-04-06T04:56:35.416Z,16.17
2023-04-06T04:59:02.355Z,16.97
2023-04-06T05:01:29.235Z,15.03
2023-04-06T05:03:56.359Z,14.63
2023-04-06T05:06:23.243Z,13.63
2023-04-06T05:08:50.419Z,13.37
2023-04-06T05:11:17.270Z,13.33
2023-04-06T05:13:44.206Z,14.40
2023-04-06T05:16:11.123Z,13.80
2023-04-06T05:18:38.001Z,13.37
2023-04-06T05:21:05.031Z,14.17
2023-04-06T05:23:31.858Z,12.03
2023-04-06T05:25:58.794Z,14.03
2023-04-06T05:28:25.751Z,12.27
2023-04-06T05:30:52.738Z,12.70
2023-04-06T05:33:19.609Z,11.83
2023-04-06T05:35:46.531Z,10.87
2023-04-06T05:38:13.483Z,12.07
2023-04-06T05:40:41.972Z,11.80
2023-04-06T05:43:09.207Z,11.20
2023-04-06T05:45:36.157Z,12.10
2023-04-06T05:48:03.724Z,11.53
2023-04-06T05:50:30.750Z,12.57
2023-04-06T05:52:57.616Z,12.67
2023-04-06T05:55:24.597Z,13.40
2023-04-06T05:57:52.724Z,13.03
2023-04-06T06:00:20.703Z,12.40
2023-04-06T06:02:47.767Z,13.60
2023-04-06T06:05:15.874Z,13.73
2023-04-06T06:07:42.850Z,12.63
2023-04-06T06:10:10.405Z,13.87
2023-04-06T06:12:37.431Z,13.27
2023-04-06T06:15:04.919Z,13.13
2023-04-06T06:17:31.796Z,13.73
2023-04-06T06:19:58.800Z,13.07
2023-04-06T06:22:25.656Z,12.57
2023-04-06T06:24:52.579Z,11.73
2023-04-06T06:27:19.400Z,12.67
2023-04-06T06:29:46.303Z,12.13
2023-04-06T06:32:13.292Z,11.10
2023-04-06T06:34:40.403Z,11.13
2023-04-06T06:37:07.342Z,10.90
2023-04-06T06:39:34.262Z,13.13
2023-04-06T06:42:03.912Z,10.10
2023-04-06T06:44:30.781Z,10.63
2023-04-06T06:46:57.755Z,11.53
2023-04-06T06:49:24.815Z,10.13
2023-04-06T06:51:51.728Z,10.63
2023-04-06T06:54:18.715Z,10.60
2023-04-06T06:56:45.999Z,10.50
2023-04-06T06:59:13.173Z,10.80
2023-04-06T07:01:40.253Z,11.20
2023-04-06T07:04:08.971Z,11.20
2023-04-06T07:06:38.885Z,11.63
2023-04-06T07:09:06.124Z,11.00
2023-04-06T07:11:33.084Z,10.97
2023-04-06T07:14:00.207Z,11.73
2023-04-06T07:16:27.175Z,10.83
2023-04-06T07:18:54.035Z,11.80
2023-04-06T07:21:21.354Z,11.17
2023-04-06T07:23:49.168Z,11.87
2023-04-06T07:26:17.752Z,10.83
2023-04-06T07:28:44.690Z,11.60
2023-04-06T07:31:11.577Z,11.80
2023-04-06T07:33:38.524Z,11.50
2023-04-06T07:36:05.974Z,11.53
2023-04-06T07:38:32.890Z,11.63
2023-04-06T07:40:59.743Z,12.63
2023-04-06T07:43:26.728Z,11.60
2023-04-06T07:45:54.750Z,11.67
2023-04-06T07:48:21.657Z,11.90
2023-04-06T07:50:48.592Z,12.03
2023-04-06T07:53:16.786Z,12.97
2023-04-06T07:55:43.646Z,13.20
2023-04-06T07:58:10.601Z,12.70
2023-04-06T08:00:37.486Z,12.83
2023-04-06T08:03:04.495Z,13.67
2023-04-06T08:05:31.541Z,13.00
2023-04-06T08:07:58.412Z,11.77
2023-04-06T08:10:25.335Z,13.20
2023-04-06T08:12:53.154Z,14.23
2023-04-06T08:15:21.337Z,14.03
2023-04-06T08:17:50.140Z,14.40
2023-04-06T08:20:19.607Z,13.97
2023-04-06T08:22:46.993Z,13.63
2023-04-06T08:25:14.104Z,14.43
2023-04-06T08:27:41.562Z,15.27
2023-04-06T08:30:08.764Z,15.63
2023-04-06T08:32:35.789Z,14.87
2023-04-06T08:35:02.755Z,14.57
2023-04-06T08:37:29.644Z,16.17
2023-04-06T08:39:56.591Z,15.50
2023-04-06T08:42:23.661Z,16.03
2023-04-06T08:44:52.479Z,18.07
2023-04-06T08:47:24.518Z,17.17
2023-04-06T08:49:53.803Z,17.73
2023-04-06T08:52:20.853Z,18.07
2023-04-06T08:54:48.947Z,17.47
2023-04-06T08:57:16.035Z,18.97
2023-04-06T08:59:43.043Z,20.33
2023-04-06T09:02:10.173Z,19.37
2023-04-06T09:04:37.328Z,19.97
2023-04-06T09:07:04.426Z,20.30
2023-04-06T09:09:31.404Z,21.07
2023-04-06T09:12:04.521Z,19.93
2023-04-06T09:14:36.458Z,20.27
2023-04-06T09:17:03.385Z,21.20
2023-04-06T09:19:30.321Z,21.40
2023-04-06T09:22:05.024Z,21.33
2023-04-06T09:24:48.708Z,21.30
2023-04-06T09:27:16.424Z,21.53
2023-04-06T09:29:43.820Z,23.17
2023-04-06T09:32:17.969Z,21.77
2023-04-06T09:34:50.899Z,22.67
2023-04-06T09:37:19.199Z,22.10
2023-04-06T09:39:46.700Z,22.07
2023-04-06T09:42:27.442Z,23.07
2023-04-06T09:44:54.368Z,21.80
2023-04-06T09:47:26.402Z,21.90
2023-04-06T09:50:03.939Z,23.97
2023-04-06T09:52:35.153Z,23.20
2023-04-06T09:55:04.536Z,22.60
2023-04-06T09:57:57.940Z,22.73
2023-04-06T10:00:24.967Z,22.63
2023-04-06T10:03:00.997Z,22.90
2023-04-06T10:05:37.073Z,22.90
2023-04-06T10:08:14.877Z,22.77
2023-04-06T10:10:41.737Z,21.57
2023-04-06T10:13:08.815Z,22.07
2023-04-06T10:15:35.782Z,22.43
2023-04-06T10:18:02.725Z,21.70
2023-04-06T10:20:31.192Z,21.30
2023-04-06T10:23:03.427Z,22.53
2023-04-06T10:25:34.911Z,21.87
2023-04-06T10:28:09.364Z,21.87
2023-04-06T10:30:38.888Z,22.03
2023-04-06T10:33:26.256Z,20.73
2023-04-06T10:35:53.283Z,22.10
2023-04-06T10:38:22.986Z,22.20
2023-04-06T10:40:50.303Z,21.60
2023-04-06T10:43:22.362Z,21.20
2023-04-06T10:46:01.050Z,21.73
2023-04-06T10:48:37.941Z,21.03
2023-04-06T10:51:32.578Z,22.40
2023-04-06T10:53:59.476Z,21.90
2023-04-06T10:56:29.070Z,22.97
2023-04-06T10:58:59.088Z,21.23
2023-04-06T11:01:30.504Z,22.93
2023-04-06T11:04:00.517Z,21.83
2023-04-06T11:06:29.905Z,20.57
2023-04-06T11:08:58.816Z,21.53
2023-04-06T11:11:27.899Z,21.97
2023-04-06T11:13:59.937Z,21.03
2023-04-06T11:16:28.674Z,22.00
2023-04-06T11:18:59.710Z,21.83
2023-04-06T11:21:44.660Z,20.60
2023-04-06T11:24:18.920Z,21.90
2023-04-06T11:26:49.505Z,20.67
2023-04-06T11:29:17.544Z,18.97
2023-04-06T11:31:47.653Z,20.33
2023-04-06T11:34:24.423Z,20.10
2023-04-06T11:37:00.247Z,19.00
2023-04-06T11:39:28.441Z,18.20
2023-04-06T11:42:06.849Z,18.83
2023-04-06T11:44:36.906Z,19.43
2023-04-06T11:47:04.593Z,18.83
2023-04-06T11:49:31.969Z,18.73
2023-04-06T11:51:59.288Z,17.80
2023-04-06T11:54:35.570Z,19.10
2023-04-06T11:57:06.146Z,18.27
2023-04-06T11:59:33.554Z,17.60
2023-04-06T12:02:00.815Z,17.10
2023-04-06T12:04:27.778Z,18.80
2023-04-06T12:06:55.493Z,18.73
2023-04-06T12:09:22.423Z,17.60
2023-04-06T12:11:49.459Z,18.83
2023-04-06T12:14:17.170Z,18.80
2023-04-06T12:16:44.872Z,19.67
2023-04-06T12:19:11.850Z,18.37
2023-04-06T12:21:38.723Z,19.03
2023-04-06T12:24:07.718Z,19.67
2023-04-06T12:26:34.676Z,19.47
2023-04-06T12:29:07.758Z,19.27
2023-04-06T12:31:36.519Z,18.03
2023-04-06T12:34:12.957Z,18.10
2023-04-06T12:36:44.392Z,16.73
2023-04-06T12:39:12.082Z,20.00
2023-04-06T12:41:41.640Z,20.93
2023-04-06T12:44:08.596Z,19.20
2023-04-06T12:46:36.260Z,19.57
2023-04-06T12:49:04.540Z,19.93
2023-04-06T12:51:34.986Z,21.20
2023-04-06T12:54:02.042Z,28.20
2023-04-06T12:56:28.929Z,19.27
2023-04-06T12:58:56.361Z,19.00
2023-04-06T13:01:23.383Z,19.20
2023-04-06T13:03:50.727Z,19.40
2023-04-06T13:06:17.609Z,18.60
2023-04-06T13:08:51.191Z,18.58
2023-04-06T13:15:33.175Z,21.95
2023-04-06T13:18:00.174Z,20.70
2023-04-06T13:22:02.532Z,15.88
2023-04-06T13:31:08.689Z,18.95
2023-04-06T13:33:41.595Z,19.07
2023-04-06T13:36:18.300Z,17.93
2023-04-06T13:38:53.989Z,18.83
2023-04-06T13:41:22.316Z,19.27
2023-04-06T13:48:24.191Z,17.07
2023-04-06T13:54:53.781Z,15.60
2023-04-06T13:57:22.367Z,17.97
2023-04-06T14:03:37.544Z,13.70
2023-04-06T14:11:17.657Z,6.45
2023-04-06T14:17:52.624Z,3.75
2023-04-06T14:20:20.942Z,4.16
2023-04-06T14:22:52.443Z,3.87
2023-04-06T14:28:29.331Z,3.78
2023-04-06T14:46:45.590Z,5.00
2023-04-06T14:49:21.764Z,4.38
2023-04-06T14:58:20.679Z,7.75
2023-04-06T15:01:34.768Z,8.07
2023-04-06T15:07:53.315Z,6.75
2023-04-06T15:34:31.939Z,7.70
2023-04-06T15:56:46.980Z,7.18
2023-04-06T16:22:28.751Z,13.58
2023-04-06T16:25:43.631Z,12.00
2023-04-06T16:28:12.245Z,13.80
2023-04-06T16:32:57.482Z,11.50
2023-04-06T16:35:46.499Z,11.23
2023-04-06T16:41:19.201Z,8.69
2023-04-06T16:46:20.062Z,5.47
2023-04-06T16:48:55.159Z,4.72
2023-04-06T16:52:37.242Z,6.62
2023-04-06T16:55:04.608Z,4.95
2023-04-06T17:02:21.689Z,4.70
2023-04-06T17:05:08.179Z,5.05
2023-04-06T17:07:54.569Z,4.85
2023-04-06T17:10:28.926Z,5.10
2023-04-06T17:21:52.017Z,3.05
2023-04-06T17:28:27.501Z,3.15
2023-04-06T17:31:46.694Z,2.58
2023-04-06T17:34:13.571Z,2.92
2023-04-06T17:37:02.420Z,2.95
2023-04-06T17:42:14.958Z,5.23
2023-04-06T17:44:41.788Z,6.10
2023-04-06T17:47:08.614Z,4.40
2023-04-06T17:49:35.495Z,4.23
2023-04-06T17:52:02.322Z,3.67
2023-04-06T17:54:29.135Z,3.70
2023-04-06T17:56:56.179Z,3.47
2023-04-06T17:59:23.492Z,3.50
2023-04-06T18:01:50.375Z,3.07
2023-04-06T18:04:18.401Z,3.87
2023-04-06T18:06:45.447Z,3.30
2023-04-06T18:09:15.229Z,3.20
2023-04-06T18:11:42.391Z,3.17
2023-04-06T18:14:09.457Z,3.30
2023-04-06T18:16:37.442Z,2.60
2023-04-06T18:19:04.874Z,2.70
2023-04-06T18:21:34.863Z,3.10
2023-04-06T18:24:04.107Z,3.20
2023-04-06T18:26:34.043Z,3.30
2023-04-06T18:29:01.260Z,3.97
2023-04-06T18:31:28.226Z,4.33
2023-04-06T18:33:55.962Z,3.60
2023-04-06T18:36:23.192Z,3.57
2023-04-06T18:38:50.101Z,3.70
2023-04-06T18:41:18.109Z,3.83
2023-04-06T18:43:45.049Z,4.73
2023-04-06T18:46:15.746Z,5.07
2023-04-06T18:48:42.830Z,4.10
2023-04-06T18:51:09.640Z,5.63
2023-04-06T18:53:38.539Z,5.63
2023-04-06T18:56:14.487Z,5.60
2023-04-06T18:58:42.485Z,5.83
2023-04-06T19:01:09.353Z,5.80
2023-04-06T19:03:37.148Z,6.47
2023-04-06T19:06:09.973Z,5.97
2023-04-06T19:08:38.802Z,6.23
2023-04-06T19:11:08.762Z,6.17
2023-04-06T19:13:35.806Z,6.53
2023-04-06T19:16:02.973Z,6.33
2023-04-06T19:18:29.803Z,7.17
2023-04-06T19:20:56.905Z,6.40
2023-04-06T19:23:23.996Z,7.27
2023-04-06T19:25:52.716Z,7.70
2023-04-06T19:28:20.604Z,6.27
2023-04-06T19:30:47.587Z,6.77
2023-04-06T19:33:16.348Z,6.73
2023-04-06T19:35:43.202Z,6.70
2023-04-06T19:38:10.110Z,6.70
2023-04-06T19:40:36.958Z,5.43
2023-04-06T19:43:03.824Z,6.20
2023-04-06T19:45:30.952Z,5.50
2023-04-06T19:47:57.858Z,5.73
2023-04-06T19:50:24.793Z,6.00
2023-04-06T19:52:53.327Z,5.03
2023-04-06T19:55:20.248Z,4.60
2023-04-06T19:57:48.036Z,4.70
2023-04-06T20:00:16.357Z,3.87
2023-04-06T20:02:43.635Z,4.73
2023-04-06T20:05:10.714Z,3.47
2023-04-06T20:07:39.004Z,3.47
2023-04-06T20:10:08.200Z,3.97
2023-04-06T20:12:36.164Z,3.47
2023-04-06T20:15:03.095Z,4.43
2023-04-06T20:17:29.957Z,3.57
2023-04-06T20:19:56.824Z,3.47
2023-04-06T20:22:23.867Z,3.70
2023-04-06T20:24:50.859Z,3.30
2023-04-06T20:27:18.924Z,3.20
2023-04-06T20:29:46.046Z,3.03
2023-04-06T20:32:14.502Z,2.77
2023-04-06T20:34:41.481Z,3.30
2023-04-06T20:37:08.939Z,3.63
2023-04-06T20:39:36.871Z,3.50
2023-04-06T20:42:03.824Z,3.40
2023-04-06T20:44:31.265Z,3.73
2023-04-06T20:46:58.908Z,4.57
2023-04-06T20:49:25.810Z,5.00
2023-04-06T20:51:52.620Z,4.83
2023-04-06T20:54:19.757Z,4.80
2023-04-06T20:56:46.836Z,4.03
2023-04-06T20:59:13.693Z,3.67
2023-04-06T21:01:40.934Z,3.70
2023-04-06T21:04:07.964Z,3.77
2023-04-06T21:06:34.900Z,3.90
2023-04-06T21:09:01.771Z,3.00
2023-04-06T21:11:28.801Z,3.43
2023-04-06T21:13:55.803Z,3.30
2023-04-06T21:16:22.811Z,3.17
2023-04-06T21:18:50.476Z,3.10
2023-04-06T21:21:17.279Z,2.90
2023-04-06T21:23:44.052Z,3.67
2023-04-06T21:26:13.769Z,3.97
2023-04-06T21:28:40.602Z,4.13
2023-04-06T21:31:08.830Z,4.00
2023-04-06T21:33:35.912Z,6.20
2023-04-06T21:36:09.110Z,4.00
2023-04-06T21:38:35.936Z,5.60
2023-04-06T21:41:03.822Z,6.13
2023-04-06T21:43:30.699Z,6.53
2023-04-06T21:45:57.496Z,6.80
2023-04-06T21:48:24.402Z,6.37
2023-04-06T21:50:51.243Z,6.43
2023-04-06T21:53:18.326Z,5.20
2023-04-06T21:55:45.712Z,4.23
2023-04-06T21:58:12.941Z,4.43
2023-04-06T22:00:39.814Z,5.03
2023-04-06T22:03:06.897Z,4.57
2023-04-06T22:05:33.967Z,3.00
2023-04-06T22:08:03.810Z,2.97
2023-04-06T22:10:30.851Z,2.90
2023-04-06T22:12:57.638Z,2.97
2023-04-06T22:15:24.636Z,3.33
2023-04-06T22:17:51.707Z,3.20
2023-04-06T22:20:18.663Z,2.60
2023-04-06T22:22:45.731Z,3.27
2023-04-06T22:25:12.528Z,4.60
2023-04-06T22:27:39.322Z,4.60
2023-04-06T22:30:06.890Z,4.33
2023-04-06T22:32:33.739Z,4.27
2023-04-06T22:35:00.580Z,3.90
2023-04-06T22:37:27.478Z,4.57
2023-04-06T22:39:55.073Z,5.50
2023-04-06T22:42:21.864Z,5.37
2023-04-06T22:44:49.735Z,5.27
2023-04-06T22:47:16.890Z,4.87
2023-04-06T22:49:43.763Z,4.40
2023-04-06T22:52:10.628Z,6.10
2023-04-06T22:54:37.516Z,6.03
2023-04-06T22:57:04.368Z,5.87
2023-04-06T22:59:31.523Z,6.57
2023-04-06T23:01:58.492Z,7.07
2023-04-06T23:04:25.662Z,8.07
2023-04-06T23:06:52.701Z,7.33
2023-04-06T23:09:19.520Z,8.13
2023-04-06T23:11:46.293Z,7.77
2023-04-06T23:14:13.198Z,8.10
2023-04-06T23:16:40.100Z,8.53
2023-04-06T23:19:07.105Z,8.53
2023-04-06T23:21:34.169Z,8.37
2023-04-06T23:24:01.288Z,8.47
2023-04-06T23:26:28.175Z,9.13
2023-04-06T23:28:55.273Z,8.23
2023-04-06T23:31:22.083Z,7.77
2023-04-06T23:33:48.919Z,6.97
2023-04-06T23:36:15.727Z,8.30
2023-04-06T23:38:42.546Z,8.27
2023-04-06T23:41:09.360Z,7.10
2023-04-06T23:43:36.369Z,6.57
2023-04-06T23:46:04.404Z,6.37
2023-04-06T23:48:31.276Z,6.23
2023-04-06T23:50:58.078Z,5.97
2023-04-06T23:53:24.864Z,6.57
2023-04-06T23:55:51.732Z,7.90
2023-04-06T23:58:19.033Z,7.37
